Terminal Aerodrome Forecast
Issued by NWS

Home | Current Version | Previous Version | Text Only | Print | Product List | Glossary On
Versions: 1 2 3 4 5 6 7 8 9 10 11 12 13 14 15 16 17 18 19
000
FTUS42 KTAE 251100
TAFVLD
TAF
KVLD 251138Z 2512/2612 00000KT 6SM HZ SKC
     FM251300 25005KT P6SM SCT035 SCT250
     FM251800 25008KT P6SM VCTS BKN050CB
     FM260000 21003KT P6SM BKN250
     FM260900 00000KT 5SM BR SKC=

USA.gov is the U.S. government's official web portal to all federal, state and local government web resources and services.